sensor_id;sensor_type;location;lat;lon;timestamp;temperature;humidity
16827;DHT22;8530;49.540;8.576;2023-03-03T00:00:35;2.60;54.60
16827;DHT22;8530;49.540;8.576;2023-03-03T00:03:04;2.60;54.70
16827;DHT22;8530;49.540;8.576;2023-03-03T00:05:32;2.50;54.80
16827;DHT22;8530;49.540;8.576;2023-03-03T00:07:59;2.50;55.00
16827;DHT22;8530;49.540;8.576;2023-03-03T00:10:26;2.40;55.00
16827;DHT22;8530;49.540;8.576;2023-03-03T00:12:54;2.40;55.10
16827;DHT22;8530;49.540;8.576;2023-03-03T00:15:23;2.40;55.30
16827;DHT22;8530;49.540;8.576;2023-03-03T00:17:50;2.30;55.40
16827;DHT22;8530;49.540;8.576;2023-03-03T00:20:36;2.30;55.60
16827;DHT22;8530;49.540;8.576;2023-03-03T00:23:14;2.30;56.00
16827;DHT22;8530;49.540;8.576;2023-03-03T00:25:43;2.20;56.00
16827;DHT22;8530;49.540;8.576;2023-03-03T00:28:22;2.20;56.00
16827;DHT22;8530;49.540;8.576;2023-03-03T00:30:50;2.20;56.30
16827;DHT22;8530;49.540;8.576;2023-03-03T00:33:24;2.10;56.40
16827;DHT22;8530;49.540;8.576;2023-03-03T00:35:53;2.10;56.60
16827;DHT22;8530;49.540;8.576;2023-03-03T00:38:20;2.10;56.80
16827;DHT22;8530;49.540;8.576;2023-03-03T00:40:47;2.10;57.00
16827;DHT22;8530;49.540;8.576;2023-03-03T00:43:19;2.00;57.10
16827;DHT22;8530;49.540;8.576;2023-03-03T00:45:47;2.00;57.40
16827;DHT22;8530;49.540;8.576;2023-03-03T00:48:23;2.00;57.60
16827;DHT22;8530;49.540;8.576;2023-03-03T00:50:51;1.90;57.80
16827;DHT22;8530;49.540;8.576;2023-03-03T00:53:20;1.90;58.00
16827;DHT22;8530;49.540;8.576;2023-03-03T00:55:48;1.90;58.20
16827;DHT22;8530;49.540;8.576;2023-03-03T00:58:15;1.80;58.30
16827;DHT22;8530;49.540;8.576;2023-03-03T01:00:44;1.80;58.60
16827;DHT22;8530;49.540;8.576;2023-03-03T01:03:13;1.80;58.80
16827;DHT22;8530;49.540;8.576;2023-03-03T01:05:40;1.80;59.10
16827;DHT22;8530;49.540;8.576;2023-03-03T01:08:07;1.80;59.30
16827;DHT22;8530;49.540;8.576;2023-03-03T01:10:37;1.80;59.60
16827;DHT22;8530;49.540;8.576;2023-03-03T01:13:04;1.70;59.70
16827;DHT22;8530;49.540;8.576;2023-03-03T01:15:31;1.70;60.00
16827;DHT22;8530;49.540;8.576;2023-03-03T01:18:00;1.70;60.30
16827;DHT22;8530;49.540;8.576;2023-03-03T01:20:26;1.70;60.70
16827;DHT22;8530;49.540;8.576;2023-03-03T01:22:53;1.70;60.90
16827;DHT22;8530;49.540;8.576;2023-03-03T01:25:20;1.70;61.30
16827;DHT22;8530;49.540;8.576;2023-03-03T01:27:48;1.70;61.60
16827;DHT22;8530;49.540;8.576;2023-03-03T01:30:15;1.60;61.90
16827;DHT22;8530;49.540;8.576;2023-03-03T01:32:42;1.60;62.20
16827;DHT22;8530;49.540;8.576;2023-03-03T01:35:10;1.60;62.50
16827;DHT22;8530;49.540;8.576;2023-03-03T01:37:37;1.50;62.70
16827;DHT22;8530;49.540;8.576;2023-03-03T01:40:05;1.50;63.00
16827;DHT22;8530;49.540;8.576;2023-03-03T01:42:32;1.50;63.30
16827;DHT22;8530;49.540;8.576;2023-03-03T01:45:18;1.40;63.50
16827;DHT22;8530;49.540;8.576;2023-03-03T01:47:53;1.40;64.20
16827;DHT22;8530;49.540;8.576;2023-03-03T01:50:35;1.40;64.30
16827;DHT22;8530;49.540;8.576;2023-03-03T01:53:04;1.30;64.70
16827;DHT22;8530;49.540;8.576;2023-03-03T01:55:34;1.30;64.80
16827;DHT22;8530;49.540;8.576;2023-03-03T01:58:04;1.30;65.20
16827;DHT22;8530;49.540;8.576;2023-03-03T02:00:34;1.30;65.50
16827;DHT22;8530;49.540;8.576;2023-03-03T02:03:02;1.20;65.70
16827;DHT22;8530;49.540;8.576;2023-03-03T02:05:31;1.20;66.10
16827;DHT22;8530;49.540;8.576;2023-03-03T02:07:58;1.20;66.50
16827;DHT22;8530;49.540;8.576;2023-03-03T02:10:25;1.10;66.70
16827;DHT22;8530;49.540;8.576;2023-03-03T02:12:55;1.10;67.10
16827;DHT22;8530;49.540;8.576;2023-03-03T02:15:24;1.10;67.50
16827;DHT22;8530;49.540;8.576;2023-03-03T02:17:53;1.10;67.80
16827;DHT22;8530;49.540;8.576;2023-03-03T02:20:34;1.10;68.20
16827;DHT22;8530;49.540;8.576;2023-03-03T02:23:06;1.00;68.60
16827;DHT22;8530;49.540;8.576;2023-03-03T02:25:41;1.00;68.70
16827;DHT22;8530;49.540;8.576;2023-03-03T02:28:10;1.00;69.20
16827;DHT22;8530;49.540;8.576;2023-03-03T02:30:38;0.90;69.40
16827;DHT22;8530;49.540;8.576;2023-03-03T02:33:05;0.90;69.80
16827;DHT22;8530;49.540;8.576;2023-03-03T02:35:34;1.00;70.10
16827;DHT22;8530;49.540;8.576;2023-03-03T02:38:10;0.90;70.30
16827;DHT22;8530;49.540;8.576;2023-03-03T02:40:44;0.90;70.70
16827;DHT22;8530;49.540;8.576;2023-03-03T02:43:16;0.90;70.90
16827;DHT22;8530;49.540;8.576;2023-03-03T02:45:44;0.80;71.10
16827;DHT22;8530;49.540;8.576;2023-03-03T02:48:11;0.80;71.40
16827;DHT22;8530;49.540;8.576;2023-03-03T02:50:38;0.80;71.70
16827;DHT22;8530;49.540;8.576;2023-03-03T02:53:04;0.80;72.00
16827;DHT22;8530;49.540;8.576;2023-03-03T02:55:31;0.80;72.20
16827;DHT22;8530;49.540;8.576;2023-03-03T02:57:58;0.70;72.30
16827;DHT22;8530;49.540;8.576;2023-03-03T03:00:26;0.70;72.40
16827;DHT22;8530;49.540;8.576;2023-03-03T03:02:52;0.60;72.60
16827;DHT22;8530;49.540;8.576;2023-03-03T03:05:19;0.50;72.80
16827;DHT22;8530;49.540;8.576;2023-03-03T03:07:46;0.50;73.10
16827;DHT22;8530;49.540;8.576;2023-03-03T03:10:13;0.50;73.40
16827;DHT22;8530;49.540;8.576;2023-03-03T03:12:39;0.40;73.50
16827;DHT22;8530;49.540;8.576;2023-03-03T03:15:07;0.40;73.80
16827;DHT22;8530;49.540;8.576;2023-03-03T03:17:36;0.40;74.00
16827;DHT22;8530;49.540;8.576;2023-03-03T03:20:04;0.30;74.20
16827;DHT22;8530;49.540;8.576;2023-03-03T03:22:31;0.30;74.90
16827;DHT22;8530;49.540;8.576;2023-03-03T03:24:57;0.30;74.70
16827;DHT22;8530;49.540;8.576;2023-03-03T03:27:24;0.30;75.00
16827;DHT22;8530;49.540;8.576;2023-03-03T03:29:51;0.20;75.20
16827;DHT22;8530;49.540;8.576;2023-03-03T03:32:17;0.20;76.10
16827;DHT22;8530;49.540;8.576;2023-03-03T03:34:46;0.20;75.70
16827;DHT22;8530;49.540;8.576;2023-03-03T03:37:12;0.20;76.00
16827;DHT22;8530;49.540;8.576;2023-03-03T03:39:39;0.10;76.10
16827;DHT22;8530;49.540;8.576;2023-03-03T03:42:06;0.10;76.30
16827;DHT22;8530;49.540;8.576;2023-03-03T03:44:33;0.10;76.60
16827;DHT22;8530;49.540;8.576;2023-03-03T03:46:59;0.10;76.80
16827;DHT22;8530;49.540;8.576;2023-03-03T03:49:26;0.10;77.00
16827;DHT22;8530;49.540;8.576;2023-03-03T03:51:54;0.10;77.30
16827;DHT22;8530;49.540;8.576;2023-03-03T03:54:21;0.00;77.50
16827;DHT22;8530;49.540;8.576;2023-03-03T03:56:47;0.00;77.70
16827;DHT22;8530;49.540;8.576;2023-03-03T03:59:14;0.00;77.90
16827;DHT22;8530;49.540;8.576;2023-03-03T04:01:41;0.00;78.20
16827;DHT22;8530;49.540;8.576;2023-03-03T04:04:07;0.00;78.30
16827;DHT22;8530;49.540;8.576;2023-03-03T04:06:34;-0.10;78.40
16827;DHT22;8530;49.540;8.576;2023-03-03T04:09:03;-0.10;78.60
16827;DHT22;8530;49.540;8.576;2023-03-03T04:11:30;-0.10;78.80
16827;DHT22;8530;49.540;8.576;2023-03-03T04:13:56;-0.10;79.00
16827;DHT22;8530;49.540;8.576;2023-03-03T04:16:23;-0.10;79.20
16827;DHT22;8530;49.540;8.576;2023-03-03T04:18:50;-0.10;79.30
16827;DHT22;8530;49.540;8.576;2023-03-03T04:21:17;-0.20;79.40
16827;DHT22;8530;49.540;8.576;2023-03-03T04:23:43;-0.20;79.60
16827;DHT22;8530;49.540;8.576;2023-03-03T04:26:11;-0.20;80.00
16827;DHT22;8530;49.540;8.576;2023-03-03T04:28:38;-0.20;80.10
16827;DHT22;8530;49.540;8.576;2023-03-03T04:31:05;-0.20;80.30
16827;DHT22;8530;49.540;8.576;2023-03-03T04:33:31;-0.20;80.40
16827;DHT22;8530;49.540;8.576;2023-03-03T04:35:58;-0.20;80.50
16827;DHT22;8530;49.540;8.576;2023-03-03T04:38:25;-0.30;80.50
16827;DHT22;8530;49.540;8.576;2023-03-03T04:40:52;-0.30;80.60
16827;DHT22;8530;49.540;8.576;2023-03-03T04:43:20;-0.30;80.80
16827;DHT22;8530;49.540;8.576;2023-03-03T04:45:46;-0.30;80.90
16827;DHT22;8530;49.540;8.576;2023-03-03T04:48:13;-0.30;81.10
16827;DHT22;8530;49.540;8.576;2023-03-03T04:50:41;-0.30;81.30
16827;DHT22;8530;49.540;8.576;2023-03-03T04:53:07;-0.30;81.30
16827;DHT22;8530;49.540;8.576;2023-03-03T04:55:35;-0.30;81.40
16827;DHT22;8530;49.540;8.576;2023-03-03T04:58:02;-0.30;81.50
16827;DHT22;8530;49.540;8.576;2023-03-03T05:00:31;-0.30;81.70
16827;DHT22;8530;49.540;8.576;2023-03-03T05:02:57;-0.40;81.70
16827;DHT22;8530;49.540;8.576;2023-03-03T05:05:25;-0.40;81.90
16827;DHT22;8530;49.540;8.576;2023-03-03T05:07:51;-0.40;82.00
16827;DHT22;8530;49.540;8.576;2023-03-03T05:10:18;-0.40;82.20
16827;DHT22;8530;49.540;8.576;2023-03-03T05:12:45;-0.40;82.30
16827;DHT22;8530;49.540;8.576;2023-03-03T05:15:12;-0.40;82.50
16827;DHT22;8530;49.540;8.576;2023-03-03T05:17:40;-0.50;82.50
16827;DHT22;8530;49.540;8.576;2023-03-03T05:20:08;-0.50;82.70
16827;DHT22;8530;49.540;8.576;2023-03-03T05:22:35;-0.50;83.40
16827;DHT22;8530;49.540;8.576;2023-03-03T05:25:02;-0.50;83.00
16827;DHT22;8530;49.540;8.576;2023-03-03T05:27:29;-0.50;83.20
16827;DHT22;8530;49.540;8.576;2023-03-03T05:29:56;-0.60;83.30
16827;DHT22;8530;49.540;8.576;2023-03-03T05:32:22;-0.60;83.50
16827;DHT22;8530;49.540;8.576;2023-03-03T05:34:50;-0.60;83.60
16827;DHT22;8530;49.540;8.576;2023-03-03T05:37:17;-0.60;83.90
16827;DHT22;8530;49.540;8.576;2023-03-03T05:39:44;-0.60;84.10
16827;DHT22;8530;49.540;8.576;2023-03-03T05:42:11;-0.60;84.30
16827;DHT22;8530;49.540;8.576;2023-03-03T05:44:38;-0.60;84.50
16827;DHT22;8530;49.540;8.576;2023-03-03T05:47:05;-0.70;84.60
16827;DHT22;8530;49.540;8.576;2023-03-03T05:49:32;-0.70;84.80
16827;DHT22;8530;49.540;8.576;2023-03-03T05:52:00;-0.70;85.10
16827;DHT22;8530;49.540;8.576;2023-03-03T05:54:27;-0.70;85.30
16827;DHT22;8530;49.540;8.576;2023-03-03T05:56:54;-0.70;85.50
16827;DHT22;8530;49.540;8.576;2023-03-03T05:59:21;-0.70;85.60
16827;DHT22;8530;49.540;8.576;2023-03-03T06:01:48;-0.70;85.70
16827;DHT22;8530;49.540;8.576;2023-03-03T06:04:15;-0.70;85.90
16827;DHT22;8530;49.540;8.576;2023-03-03T06:06:41;-0.70;86.20
16827;DHT22;8530;49.540;8.576;2023-03-03T06:09:10;-0.60;86.70
16827;DHT22;8530;49.540;8.576;2023-03-03T06:11:36;-0.60;87.20
16827;DHT22;8530;49.540;8.576;2023-03-03T06:14:04;-0.60;87.50
16827;DHT22;8530;49.540;8.576;2023-03-03T06:16:31;-0.50;87.80
16827;DHT22;8530;49.540;8.576;2023-03-03T06:18:57;-0.40;88.20
16827;DHT22;8530;49.540;8.576;2023-03-03T06:21:24;-0.40;88.30
16827;DHT22;8530;49.540;8.576;2023-03-03T06:23:51;-0.30;88.50
16827;DHT22;8530;49.540;8.576;2023-03-03T06:26:19;-0.20;88.70
16827;DHT22;8530;49.540;8.576;2023-03-03T06:28:46;-0.20;88.80
16827;DHT22;8530;49.540;8.576;2023-03-03T06:31:14;-0.10;88.90
16827;DHT22;8530;49.540;8.576;2023-03-03T06:33:41;0.00;89.00
16827;DHT22;8530;49.540;8.576;2023-03-03T06:36:08;0.10;89.20
16827;DHT22;8530;49.540;8.576;2023-03-03T06:38:35;0.20;89.30
16827;DHT22;8530;49.540;8.576;2023-03-03T06:41:02;0.30;89.40
16827;DHT22;8530;49.540;8.576;2023-03-03T06:43:33;0.40;89.60
16827;DHT22;8530;49.540;8.576;2023-03-03T06:45:59;0.50;89.50
16827;DHT22;8530;49.540;8.576;2023-03-03T06:48:27;0.60;89.60
16827;DHT22;8530;49.540;8.576;2023-03-03T06:50:54;0.70;89.50
16827;DHT22;8530;49.540;8.576;2023-03-03T06:53:20;0.80;89.40
16827;DHT22;8530;49.540;8.576;2023-03-03T06:55:47;0.90;89.30
16827;DHT22;8530;49.540;8.576;2023-03-03T06:58:16;0.90;89.30
16827;DHT22;8530;49.540;8.576;2023-03-03T07:00:47;1.00;89.30
16827;DHT22;8530;49.540;8.576;2023-03-03T07:03:17;1.10;89.40
16827;DHT22;8530;49.540;8.576;2023-03-03T07:05:44;1.20;89.60
16827;DHT22;8530;49.540;8.576;2023-03-03T07:08:13;1.30;89.70
16827;DHT22;8530;49.540;8.576;2023-03-03T07:10:41;1.50;90.00
16827;DHT22;8530;49.540;8.576;2023-03-03T07:13:18;1.60;90.00
16827;DHT22;8530;49.540;8.576;2023-03-03T07:15:47;1.70;90.00
16827;DHT22;8530;49.540;8.576;2023-03-03T07:18:28;1.90;90.00
16827;DHT22;8530;49.540;8.576;2023-03-03T07:20:57;2.00;89.80
16827;DHT22;8530;49.540;8.576;2023-03-03T07:23:27;2.20;89.90
16827;DHT22;8530;49.540;8.576;2023-03-03T07:25:53;2.30;89.80
16827;DHT22;8530;49.540;8.576;2023-03-03T07:28:23;2.40;89.90
16827;DHT22;8530;49.540;8.576;2023-03-03T07:30:52;2.60;90.00
16827;DHT22;8530;49.540;8.576;2023-03-03T07:33:24;2.70;89.80
16827;DHT22;8530;49.540;8.576;2023-03-03T07:35:53;2.90;89.70
16827;DHT22;8530;49.540;8.576;2023-03-03T07:38:24;3.00;89.60
16827;DHT22;8530;49.540;8.576;2023-03-03T07:40:57;3.20;89.50
16827;DHT22;8530;49.540;8.576;2023-03-03T07:43:35;3.40;89.50
16827;DHT22;8530;49.540;8.576;2023-03-03T07:46:22;3.50;89.00
16827;DHT22;8530;49.540;8.576;2023-03-03T07:48:49;3.60;88.80
16827;DHT22;8530;49.540;8.576;2023-03-03T07:51:21;3.70;88.90
16827;DHT22;8530;49.540;8.576;2023-03-03T07:53:50;3.90;88.90
16827;DHT22;8530;49.540;8.576;2023-03-03T07:56:25;4.10;90.00
16827;DHT22;8530;49.540;8.576;2023-03-03T07:58:53;4.80;91.60
16827;DHT22;8530;49.540;8.576;2023-03-03T08:01:39;5.60;93.00
16827;DHT22;8530;49.540;8.576;2023-03-03T08:04:18;6.30;93.40
16827;DHT22;8530;49.540;8.576;2023-03-03T08:06:49;7.20;94.40
16827;DHT22;8530;49.540;8.576;2023-03-03T08:09:45;8.10;95.20
16827;DHT22;8530;49.540;8.576;2023-03-03T08:12:23;9.30;95.60
16827;DHT22;8530;49.540;8.576;2023-03-03T08:14:51;10.30;95.20
16827;DHT22;8530;49.540;8.576;2023-03-03T08:17:25;11.20;94.90
16827;DHT22;8530;49.540;8.576;2023-03-03T08:19:55;12.00;94.00
16827;DHT22;8530;49.540;8.576;2023-03-03T08:22:28;12.80;93.20
16827;DHT22;8530;49.540;8.576;2023-03-03T08:24:56;13.60;91.90
16827;DHT22;8530;49.540;8.576;2023-03-03T08:27:23;14.50;91.90
16827;DHT22;8530;49.540;8.576;2023-03-03T08:29:50;15.50;91.00
16827;DHT22;8530;49.540;8.576;2023-03-03T08:32:16;16.40;87.50
16827;DHT22;8530;49.540;8.576;2023-03-03T08:34:44;17.20;81.20
16827;DHT22;8530;49.540;8.576;2023-03-03T08:37:11;17.80;75.70
16827;DHT22;8530;49.540;8.576;2023-03-03T08:39:38;18.30;70.20
16827;DHT22;8530;49.540;8.576;2023-03-03T08:42:05;18.70;66.00
16827;DHT22;8530;49.540;8.576;2023-03-03T08:44:32;19.30;62.00
16827;DHT22;8530;49.540;8.576;2023-03-03T08:46:58;19.90;58.10
16827;DHT22;8530;49.540;8.576;2023-03-03T08:49:25;20.20;54.30
16827;DHT22;8530;49.540;8.576;2023-03-03T08:51:53;20.30;50.80
16827;DHT22;8530;49.540;8.576;2023-03-03T08:54:21;20.10;48.10
16827;DHT22;8530;49.540;8.576;2023-03-03T08:56:48;20.00;46.70
16827;DHT22;8530;49.540;8.576;2023-03-03T08:59:14;19.70;44.90
16827;DHT22;8530;49.540;8.576;2023-03-03T09:01:41;19.50;43.20
16827;DHT22;8530;49.540;8.576;2023-03-03T09:04:09;19.20;41.20
16827;DHT22;8530;49.540;8.576;2023-03-03T09:06:37;18.80;39.50
16827;DHT22;8530;49.540;8.576;2023-03-03T09:09:05;18.00;36.90
16827;DHT22;8530;49.540;8.576;2023-03-03T09:11:32;17.00;35.00
16827;DHT22;8530;49.540;8.576;2023-03-03T09:14:06;15.60;33.60
16827;DHT22;8530;49.540;8.576;2023-03-03T09:16:38;14.10;33.30
16827;DHT22;8530;49.540;8.576;2023-03-03T09:19:30;12.70;33.10
16827;DHT22;8530;49.540;8.576;2023-03-03T09:22:02;11.60;33.60
16827;DHT22;8530;49.540;8.576;2023-03-03T09:24:36;10.80;33.80
16827;DHT22;8530;49.540;8.576;2023-03-03T09:27:14;10.20;34.10
16827;DHT22;8530;49.540;8.576;2023-03-03T09:29:43;9.80;35.30
16827;DHT22;8530;49.540;8.576;2023-03-03T09:32:23;9.60;35.40
16827;DHT22;8530;49.540;8.576;2023-03-03T09:34:55;9.30;35.70
16827;DHT22;8530;49.540;8.576;2023-03-03T09:37:23;9.10;35.80
16827;DHT22;8530;49.540;8.576;2023-03-03T09:39:54;8.90;36.20
16827;DHT22;8530;49.540;8.576;2023-03-03T09:42:40;8.70;36.60
16827;DHT22;8530;49.540;8.576;2023-03-03T09:45:25;8.50;37.10
16827;DHT22;8530;49.540;8.576;2023-03-03T09:48:14;8.40;37.30
16827;DHT22;8530;49.540;8.576;2023-03-03T09:50:54;8.30;37.70
16827;DHT22;8530;49.540;8.576;2023-03-03T09:53:36;8.30;37.90
16827;DHT22;8530;49.540;8.576;2023-03-03T09:56:14;8.30;38.20
16827;DHT22;8530;49.540;8.576;2023-03-03T09:59:02;8.40;38.60
16827;DHT22;8530;49.540;8.576;2023-03-03T10:01:52;8.40;38.90
16827;DHT22;8530;49.540;8.576;2023-03-03T10:07:19;8.40;39.50
16827;DHT22;8530;49.540;8.576;2023-03-03T10:10:10;8.40;39.60
16827;DHT22;8530;49.540;8.576;2023-03-03T10:12:47;8.60;40.00
16827;DHT22;8530;49.540;8.576;2023-03-03T10:15:28;8.60;40.10
16827;DHT22;8530;49.540;8.576;2023-03-03T10:18:01;8.80;40.20
16827;DHT22;8530;49.540;8.576;2023-03-03T10:20:46;8.80;40.30
16827;DHT22;8530;49.540;8.576;2023-03-03T10:23:20;8.90;40.60
16827;DHT22;8530;49.540;8.576;2023-03-03T10:25:55;8.90;40.60
16827;DHT22;8530;49.540;8.576;2023-03-03T10:28:58;8.90;40.80
16827;DHT22;8530;49.540;8.576;2023-03-03T10:31:41;9.00;41.00
16827;DHT22;8530;49.540;8.576;2023-03-03T10:34:20;9.00;41.00
16827;DHT22;8530;49.540;8.576;2023-03-03T10:36:54;9.20;41.30
16827;DHT22;8530;49.540;8.576;2023-03-03T10:39:40;9.20;41.30
16827;DHT22;8530;49.540;8.576;2023-03-03T10:42:22;9.30;41.50
16827;DHT22;8530;49.540;8.576;2023-03-03T10:45:06;9.30;41.50
16827;DHT22;8530;49.540;8.576;2023-03-03T10:47:51;9.40;41.80
16827;DHT22;8530;49.540;8.576;2023-03-03T10:50:26;9.40;41.80
16827;DHT22;8530;49.540;8.576;2023-03-03T10:53:10;9.50;42.00
16827;DHT22;8530;49.540;8.576;2023-03-03T10:55:47;9.50;42.00
16827;DHT22;8530;49.540;8.576;2023-03-03T10:58:44;9.60;42.10
16827;DHT22;8530;49.540;8.576;2023-03-03T11:01:20;9.70;42.20
16827;DHT22;8530;49.540;8.576;2023-03-03T11:04:18;9.70;42.10
16827;DHT22;8530;49.540;8.576;2023-03-03T11:06:51;9.80;42.20
16827;DHT22;8530;49.540;8.576;2023-03-03T11:09:30;9.90;42.20
16827;DHT22;8530;49.540;8.576;2023-03-03T11:12:06;10.00;41.40
16827;DHT22;8530;49.540;8.576;2023-03-03T11:14:40;10.10;41.50
16827;DHT22;8530;49.540;8.576;2023-03-03T11:17:16;10.20;41.50
16827;DHT22;8530;49.540;8.576;2023-03-03T11:19:54;10.20;41.50
16827;DHT22;8530;49.540;8.576;2023-03-03T11:22:33;10.20;41.50
16827;DHT22;8530;49.540;8.576;2023-03-03T11:25:19;10.20;41.40
16827;DHT22;8530;49.540;8.576;2023-03-03T11:28:13;10.10;41.30
16827;DHT22;8530;49.540;8.576;2023-03-03T11:30:57;10.10;41.40
16827;DHT22;8530;49.540;8.576;2023-03-03T11:33:34;10.20;41.50
16827;DHT22;8530;49.540;8.576;2023-03-03T11:36:10;10.40;41.60
16827;DHT22;8530;49.540;8.576;2023-03-03T11:38:46;10.40;41.60
16827;DHT22;8530;49.540;8.576;2023-03-03T11:41:22;10.40;41.60
16827;DHT22;8530;49.540;8.576;2023-03-03T11:43:56;10.50;41.70
16827;DHT22;8530;49.540;8.576;2023-03-03T11:46:29;10.70;41.80
16827;DHT22;8530;49.540;8.576;2023-03-03T11:49:02;10.80;41.80
16827;DHT22;8530;49.540;8.576;2023-03-03T11:51:36;10.80;41.60
16827;DHT22;8530;49.540;8.576;2023-03-03T11:54:09;10.80;41.50
16827;DHT22;8530;49.540;8.576;2023-03-03T11:56:42;10.80;41.60
16827;DHT22;8530;49.540;8.576;2023-03-03T11:59:24;10.90;41.70
16827;DHT22;8530;49.540;8.576;2023-03-03T12:01:56;10.80;41.40
16827;DHT22;8530;49.540;8.576;2023-03-03T12:04:28;10.80;41.50
16827;DHT22;8530;49.540;8.576;2023-03-03T12:07:10;10.80;41.50
16827;DHT22;8530;49.540;8.576;2023-03-03T12:09:50;10.80;41.40
16827;DHT22;8530;49.540;8.576;2023-03-03T12:12:22;10.80;41.40
16827;DHT22;8530;49.540;8.576;2023-03-03T12:14:58;10.80;41.50
16827;DHT22;8530;49.540;8.576;2023-03-03T12:17:43;10.90;41.50
16827;DHT22;8530;49.540;8.576;2023-03-03T12:20:20;11.00;41.50
16827;DHT22;8530;49.540;8.576;2023-03-03T12:22:59;11.20;41.60
16827;DHT22;8530;49.540;8.576;2023-03-03T12:25:33;11.30;41.50
16827;DHT22;8530;49.540;8.576;2023-03-03T12:28:05;11.40;41.50
16827;DHT22;8530;49.540;8.576;2023-03-03T12:31:08;11.50;41.40
16827;DHT22;8530;49.540;8.576;2023-03-03T12:33:49;11.50;41.30
16827;DHT22;8530;49.540;8.576;2023-03-03T12:36:30;11.60;41.40
16827;DHT22;8530;49.540;8.576;2023-03-03T12:39:03;11.70;41.40
16827;DHT22;8530;49.540;8.576;2023-03-03T12:41:38;11.70;41.30
16827;DHT22;8530;49.540;8.576;2023-03-03T12:44:11;11.80;41.30
16827;DHT22;8530;49.540;8.576;2023-03-03T12:46:44;11.90;41.30
16827;DHT22;8530;49.540;8.576;2023-03-03T12:49:12;11.90;41.20
16827;DHT22;8530;49.540;8.576;2023-03-03T12:51:51;11.90;41.00
16827;DHT22;8530;49.540;8.576;2023-03-03T12:54:48;11.90;41.00
16827;DHT22;8530;49.540;8.576;2023-03-03T12:57:27;11.90;41.00
16827;DHT22;8530;49.540;8.576;2023-03-03T13:02:59;11.90;40.80
16827;DHT22;8530;49.540;8.576;2023-03-03T13:05:34;11.90;40.70
16827;DHT22;8530;49.540;8.576;2023-03-03T13:08:22;11.80;40.70
16827;DHT22;8530;49.540;8.576;2023-03-03T13:11:03;11.90;40.70
16827;DHT22;8530;49.540;8.576;2023-03-03T13:13:36;11.90;40.70
16827;DHT22;8530;49.540;8.576;2023-03-03T13:16:09;12.00;40.70
16827;DHT22;8530;49.540;8.576;2023-03-03T13:18:47;12.00;40.70
16827;DHT22;8530;49.540;8.576;2023-03-03T13:21:19;12.00;40.50
16827;DHT22;8530;49.540;8.576;2023-03-03T13:23:53;12.00;40.50
16827;DHT22;8530;49.540;8.576;2023-03-03T13:26:26;12.10;40.50
16827;DHT22;8530;49.540;8.576;2023-03-03T13:29:07;12.20;40.50
16827;DHT22;8530;49.540;8.576;2023-03-03T13:31:38;12.20;40.30
16827;DHT22;8530;49.540;8.576;2023-03-03T13:34:08;12.20;40.10
16827;DHT22;8530;49.540;8.576;2023-03-03T13:36:44;12.10;40.00
16827;DHT22;8530;49.540;8.576;2023-03-03T13:39:21;12.10;40.00
16827;DHT22;8530;49.540;8.576;2023-03-03T13:41:53;12.10;40.00
16827;DHT22;8530;49.540;8.576;2023-03-03T13:44:25;12.20;40.00
16827;DHT22;8530;49.540;8.576;2023-03-03T13:47:04;12.20;39.90
16827;DHT22;8530;49.540;8.576;2023-03-03T13:49:46;12.30;39.90
16827;DHT22;8530;49.540;8.576;2023-03-03T13:52:22;12.40;39.90
16827;DHT22;8530;49.540;8.576;2023-03-03T13:54:58;12.40;39.80
16827;DHT22;8530;49.540;8.576;2023-03-03T13:57:39;12.50;40.30
16827;DHT22;8530;49.540;8.576;2023-03-03T14:00:22;12.60;39.80
16827;DHT22;8530;49.540;8.576;2023-03-03T14:03:07;12.70;39.60
16827;DHT22;8530;49.540;8.576;2023-03-03T14:05:40;12.70;39.50
16827;DHT22;8530;49.540;8.576;2023-03-03T14:08:16;12.70;39.30
16827;DHT22;8530;49.540;8.576;2023-03-03T14:10:58;12.60;39.20
16827;DHT22;8530;49.540;8.576;2023-03-03T14:13:30;12.60;39.00
16827;DHT22;8530;49.540;8.576;2023-03-03T14:16:03;12.60;39.00
16827;DHT22;8530;49.540;8.576;2023-03-03T14:18:35;12.50;38.90
16827;DHT22;8530;49.540;8.576;2023-03-03T14:21:10;12.50;39.00
16827;DHT22;8530;49.540;8.576;2023-03-03T14:23:52;12.50;38.80
16827;DHT22;8530;49.540;8.576;2023-03-03T14:26:24;12.40;38.80
16827;DHT22;8530;49.540;8.576;2023-03-03T14:29:11;12.40;38.80
16827;DHT22;8530;49.540;8.576;2023-03-03T14:31:41;12.40;38.60
16827;DHT22;8530;49.540;8.576;2023-03-03T14:34:33;12.40;38.70
16827;DHT22;8530;49.540;8.576;2023-03-03T14:37:21;12.50;38.70
16827;DHT22;8530;49.540;8.576;2023-03-03T14:39:50;12.40;38.50
16827;DHT22;8530;49.540;8.576;2023-03-03T14:42:36;12.40;38.50
16827;DHT22;8530;49.540;8.576;2023-03-03T14:45:19;12.40;38.50
16827;DHT22;8530;49.540;8.576;2023-03-03T14:47:46;12.40;38.50
16827;DHT22;8530;49.540;8.576;2023-03-03T14:50:31;12.40;38.50
16827;DHT22;8530;49.540;8.576;2023-03-03T14:53:06;12.30;38.30
16827;DHT22;8530;49.540;8.576;2023-03-03T14:55:36;12.30;38.20
16827;DHT22;8530;49.540;8.576;2023-03-03T14:58:11;12.20;38.20
16827;DHT22;8530;49.540;8.576;2023-03-03T15:00:49;12.20;38.20
16827;DHT22;8530;49.540;8.576;2023-03-03T15:03:21;12.20;38.20
16827;DHT22;8530;49.540;8.576;2023-03-03T15:05:50;12.10;38.10
16827;DHT22;8530;49.540;8.576;2023-03-03T15:08:26;12.10;38.10
16827;DHT22;8530;49.540;8.576;2023-03-03T15:11:11;12.00;38.00
16827;DHT22;8530;49.540;8.576;2023-03-03T15:13:40;11.90;38.00
16827;DHT22;8530;49.540;8.576;2023-03-03T15:16:15;11.90;38.10
16827;DHT22;8530;49.540;8.576;2023-03-03T15:19:20;11.90;38.10
16827;DHT22;8530;49.540;8.576;2023-03-03T15:21:56;11.80;38.10
16827;DHT22;8530;49.540;8.576;2023-03-03T15:24:30;11.70;38.10
16827;DHT22;8530;49.540;8.576;2023-03-03T15:27:01;11.70;38.20
16827;DHT22;8530;49.540;8.576;2023-03-03T15:29:36;11.60;38.20
16827;DHT22;8530;49.540;8.576;2023-03-03T15:32:11;11.50;38.20
16827;DHT22;8530;49.540;8.576;2023-03-03T15:34:43;11.40;38.30
16827;DHT22;8530;49.540;8.576;2023-03-03T15:37:26;11.30;38.40
16827;DHT22;8530;49.540;8.576;2023-03-03T15:40:01;11.20;38.40
16827;DHT22;8530;49.540;8.576;2023-03-03T15:42:32;11.10;38.50
16827;DHT22;8530;49.540;8.576;2023-03-03T15:45:14;11.00;38.60
16827;DHT22;8530;49.540;8.576;2023-03-03T15:50:52;10.80;38.70
16827;DHT22;8530;49.540;8.576;2023-03-03T15:53:34;10.80;38.80
16827;DHT22;8530;49.540;8.576;2023-03-03T15:56:14;10.70;38.90
16827;DHT22;8530;49.540;8.576;2023-03-03T15:58:59;10.70;39.00
16827;DHT22;8530;49.540;8.576;2023-03-03T16:01:32;10.60;39.00
16827;DHT22;8530;49.540;8.576;2023-03-03T16:04:03;10.50;39.00
16827;DHT22;8530;49.540;8.576;2023-03-03T16:06:39;10.40;39.10
16827;DHT22;8530;49.540;8.576;2023-03-03T16:09:18;10.40;39.20
16827;DHT22;8530;49.540;8.576;2023-03-03T16:11:53;10.20;39.20
16827;DHT22;8530;49.540;8.576;2023-03-03T16:14:40;10.20;39.30
16827;DHT22;8530;49.540;8.576;2023-03-03T16:17:20;10.10;39.50
16827;DHT22;8530;49.540;8.576;2023-03-03T16:19:57;10.00;39.50
16827;DHT22;8530;49.540;8.576;2023-03-03T16:22:39;9.90;40.50
16827;DHT22;8530;49.540;8.576;2023-03-03T16:25:19;9.90;40.60
16827;DHT22;8530;49.540;8.576;2023-03-03T16:27:54;9.80;40.70
16827;DHT22;8530;49.540;8.576;2023-03-03T16:30:27;9.80;40.80
16827;DHT22;8530;49.540;8.576;2023-03-03T16:33:14;9.70;40.80
16827;DHT22;8530;49.540;8.576;2023-03-03T16:35:47;9.60;40.80